ADDS METAR Data INFO
IDs: Format: Raw Decoded Include TAF

Data at: 2332 UTC 24 May 2018

KHUF 242253Z VRB04KT 10SM CLR 29/12 A3006 RMK AO2 SLP175 T02890117